Time;durP1;ratioP1;P1;durP2;ratioP2;P2;SDS_P1;SDS_P2;PMS_P1;PMS_P2;Temp;Humidity;BMP_temperature;BMP_pressure;BME280_temperature;BME280_humidity;BME280_pressure;Samples;Min_cycle;Max_cycle;Signal;HPM_P1;HPM_P2
2022/04/06 00:00:04;;;;;;;7.45;2.60;;;;;;;19.23;47.29;100304.75;5099733;28;20043;-66
2022/04/06 00:02:30;;;;;;;5.15;2.70;;;;;;;19.23;47.29;100310.25;5100118;28;20073;-66
2022/04/06 00:04:55;;;;;;;7.22;2.70;;;;;;;19.21;47.22;100304.22;5117490;28;20426;-66
2022/04/06 00:07:21;;;;;;;7.25;2.88;;;;;;;19.20;46.95;100294.31;5099224;28;20067;-67
2022/04/06 00:09:46;;;;;;;6.57;2.33;;;;;;;19.20;47.18;100295.13;5117965;28;20452;-66
2022/04/06 00:12:11;;;;;;;4.95;2.60;;;;;;;19.22;47.17;100294.84;5117576;28;20028;-67
2022/04/06 00:14:37;;;;;;;5.70;2.50;;;;;;;19.22;47.27;100303.94;5117594;28;20024;-66
2022/04/06 00:17:05;;;;;;;6.40;2.40;;;;;;;19.22;47.14;100298.44;5099335;28;20076;-67
2022/04/06 00:19:34;;;;;;;5.53;2.50;;;;;;;19.19;46.92;100290.75;5117704;28;20133;-67
2022/04/06 00:22:00;;;;;;;6.68;2.70;;;;;;;19.21;47.13;100293.22;5117155;28;20385;-67
2022/04/06 00:24:26;;;;;;;6.63;2.70;;;;;;;19.21;47.11;100293.22;5117286;28;20034;-67
2022/04/06 00:26:51;;;;;;;6.05;2.65;;;;;;;19.20;47.11;100294.31;5099750;28;20024;-67
2022/04/06 00:29:17;;;;;;;5.55;2.50;;;;;;;19.21;47.09;100293.22;5099402;28;20067;-66
2022/04/06 00:31:42;;;;;;;5.70;2.55;;;;;;;19.20;46.95;100280.56;5099013;28;20039;-66
2022/04/06 00:34:08;;;;;;;6.95;2.42;;;;;;;19.18;46.93;100289.13;5117221;28;20027;-66
2022/04/06 00:36:33;;;;;;;6.18;2.53;;;;;;;19.18;47.07;100289.13;5117158;28;20038;-67
2022/04/06 00:38:59;;;;;;;5.53;2.58;;;;;;;19.18;47.04;100282.81;5115494;28;20039;-67
2022/04/06 00:41:24;;;;;;;5.60;2.33;;;;;;;19.18;46.94;100285.56;5117076;28;20061;-67
2022/04/06 00:44:09;;;;;;;5.20;2.40;;;;;;;19.19;46.79;100274.25;5117007;28;20024;-67
2022/04/06 00:46:35;;;;;;;4.65;2.58;;;;;;;19.14;46.93;100276.22;5098489;28;20414;-66
2022/04/06 00:49:00;;;;;;;6.57;2.65;;;;;;;19.15;46.92;100280.59;5116933;28;20118;-67
2022/04/06 00:51:26;;;;;;;5.55;2.55;;;;;;;19.15;47.06;100273.19;5098734;28;20489;-67
2022/04/06 00:53:51;;;;;;;7.43;2.90;;;;;;;19.16;46.76;100274.00;5081557;28;20058;-67
2022/04/06 00:56:17;;;;;;;7.28;2.60;;;;;;;19.15;46.86;100272.34;5098611;28;20042;-67
2022/04/06 00:58:43;;;;;;;5.80;2.60;;;;;;;19.15;46.66;100272.34;5116490;28;20503;-67
2022/04/06 01:01:08;;;;;;;5.13;2.55;;;;;;;19.15;46.82;100270.44;5116587;28;20031;-67
2022/04/06 01:03:34;;;;;;;5.60;2.08;;;;;;;19.15;46.86;100267.69;5116904;28;20036;-67
2022/04/06 01:05:59;;;;;;;5.47;2.58;;;;;;;19.14;46.72;100266.03;5116896;28;20039;-67
2022/04/06 01:08:25;;;;;;;5.18;2.75;;;;;;;19.13;46.67;100255.31;5116578;28;20035;-67
2022/04/06 01:10:51;;;;;;;6.13;2.63;;;;;;;19.14;46.48;100262.47;5116441;28;20123;-66
2022/04/06 01:13:16;;;;;;;5.15;2.55;;;;;;;19.09;46.65;100255.09;5116487;28;20391;-67
2022/04/06 01:15:42;;;;;;;6.13;2.40;;;;;;;19.13;46.60;100258.06;5116980;28;20032;-67
2022/04/06 01:18:08;;;;;;;4.68;2.38;;;;;;;19.11;46.57;100256.44;5081486;28;20079;-67
2022/04/06 01:20:34;;;;;;;4.85;2.53;;;;;;;19.10;46.55;100256.72;5116276;28;20074;-67
2022/04/06 01:22:59;;;;;;;4.78;2.38;;;;;;;19.07;46.60;100251.78;5098177;28;20056;-67
2022/04/06 01:25:27;;;;;;;4.05;2.03;;;;;;;19.07;46.59;100247.13;5116509;28;20034;-67
2022/04/06 01:27:52;;;;;;;7.13;2.60;;;;;;;19.10;46.49;100254.81;5116388;28;20119;-67
2022/04/06 01:30:17;;;;;;;4.63;2.45;;;;;;;19.09;46.40;100246.84;5116081;28;20115;-67
2022/04/06 01:32:43;;;;;;;6.38;2.42;;;;;;;19.08;46.42;100254.25;5116045;28;20039;-67
2022/04/06 01:35:08;;;;;;;6.00;2.38;;;;;;;19.07;46.27;100251.78;5115755;28;20039;-67
2022/04/06 01:37:34;;;;;;;4.97;2.30;;;;;;;19.05;46.35;100254.03;5116530;28;20132;-67
2022/04/06 01:39:59;;;;;;;4.88;2.25;;;;;;;19.06;46.33;100248.22;5115795;28;20039;-67
2022/04/06 01:42:25;;;;;;;5.70;2.50;;;;;;;19.06;46.38;100247.41;5115883;28;20064;-67
2022/04/06 01:44:51;;;;;;;5.13;2.00;;;;;;;19.06;46.30;100247.41;5115529;28;20058;-66
2022/04/06 01:47:18;;;;;;;5.47;2.40;;;;;;;19.05;46.25;100240.28;5097612;28;20036;-66
2022/04/06 01:52:29;;;;;;;5.63;2.20;;;;;;;19.04;46.16;100238.63;5116190;28;20106;-67
2022/04/06 01:55:00;;;;;;;6.93;2.30;;;;;;;19.05;46.19;100240.28;5097469;28;20036;-67
2022/04/06 01:57:26;;;;;;;5.40;2.17;;;;;;;19.04;46.26;100235.88;5116207;28;20031;-66
2022/04/06 01:59:52;;;;;;;4.75;2.20;;;;;;;19.02;46.12;100238.91;5097157;28;20051;-67
2022/04/06 02:02:18;;;;;;;5.07;2.30;;;;;;;19.05;46.55;100240.28;5115436;28;20456;-66
2022/04/06 02:04:44;;;;;;;4.32;1.92;;;;;;;19.02;46.39;100233.41;5115406;28;20032;-67
2022/04/06 02:07:10;;;;;;;5.25;2.42;;;;;;;19.01;46.24;100237.25;5115357;28;20059;-67
2022/04/06 02:09:36;;;;;;;6.53;2.33;;;;;;;19.03;46.03;100235.06;5096771;28;20096;-67
2022/04/06 02:12:03;;;;;;;6.57;2.40;;;;;;;19.03;46.11;100234.22;5115329;28;20028;-66
2022/04/06 02:14:28;;;;;;;5.57;2.20;;;;;;;19.03;46.01;100231.47;5097105;28;20031;-66
2022/04/06 02:16:54;;;;;;;4.07;2.05;;;;;;;19.02;46.02;100227.91;5114918;28;20568;-67
2022/04/06 02:19:19;;;;;;;4.55;2.22;;;;;;;19.03;46.12;100220.47;5114817;28;20031;-67
2022/04/06 02:21:45;;;;;;;5.70;2.22;;;;;;;19.02;46.08;100219.66;5097420;28;20367;-67
2022/04/06 02:24:10;;;;;;;5.45;2.28;;;;;;;19.02;45.90;100224.34;5115009;28;20080;-67
2022/04/06 02:26:36;;;;;;;5.57;2.15;;;;;;;19.02;45.87;100216.09;5115086;28;20080;-68
2022/04/06 02:29:02;;;;;;;4.78;2.40;;;;;;;19.02;45.76;100218.84;5115186;28;20035;-67
2022/04/06 02:31:28;;;;;;;4.38;1.98;;;;;;;19.01;46.03;100217.22;5115772;28;20024;-67
2022/04/06 02:33:53;;;;;;;3.88;1.98;;;;;;;18.97;46.24;100200.47;5114888;28;20043;-67
2022/04/06 02:36:19;;;;;;;5.13;2.22;;;;;;;18.99;45.63;100214.75;5079573;28;20035;-67
2022/04/06 02:38:47;;;;;;;6.35;2.20;;;;;;;18.98;45.77;100207.59;5115119;28;20073;-67
2022/04/06 02:41:13;;;;;;;5.07;1.92;;;;;;;19.00;45.72;100215.56;5114715;28;20031;-67
2022/04/06 02:43:38;;;;;;;4.63;2.03;;;;;;;19.01;45.71;100211.72;5097494;28;20028;-67
2022/04/06 02:46:04;;;;;;;6.13;2.13;;;;;;;18.99;45.58;100208.44;5114927;28;20478;-67
2022/04/06 02:48:29;;;;;;;3.78;1.80;;;;;;;18.99;45.56;100212.00;5096562;28;20396;-67
2022/04/06 02:50:55;;;;;;;5.97;2.13;;;;;;;18.95;45.52;100197.19;5114310;28;20043;-66
2022/04/06 02:53:21;;;;;;;4.07;1.90;;;;;;;18.96;45.54;100201.59;5114530;28;20487;-67
2022/04/06 02:55:46;;;;;;;4.55;1.88;;;;;;;18.97;45.49;100197.72;5114557;28;20035;-67
2022/04/06 02:58:11;;;;;;;5.68;2.10;;;;;;;18.96;45.58;100192.53;5114296;28;20030;-67
2022/04/06 03:00:37;;;;;;;3.75;1.90;;;;;;;18.93;45.28;100189.22;5114687;28;20505;-68
2022/04/06 03:03:03;;;;;;;6.60;2.13;;;;;;;18.91;45.33;100190.63;5113608;28;20110;-67
2022/04/06 03:05:28;;;;;;;5.53;2.00;;;;;;;18.95;45.46;100188.94;5114644;28;20383;-67
2022/04/06 03:07:54;;;;;;;3.75;2.00;;;;;;;18.95;45.31;100186.19;5096129;28;20527;-67
2022/04/06 03:10:19;;;;;;;4.32;2.08;;;;;;;18.95;44.99;100190.88;5114080;28;20035;-67
2022/04/06 03:12:45;;;;;;;5.43;1.80;;;;;;;18.96;45.16;100187.84;5114573;28;20031;-67
2022/04/06 03:15:11;;;;;;;5.75;1.83;;;;;;;18.94;45.20;100181.78;5114307;28;20168;-67
2022/04/06 03:17:37;;;;;;;4.55;2.25;;;;;;;18.95;45.20;100179.88;5096214;28;20032;-67
2022/04/06 03:20:05;;;;;;;2.92;1.80;;;;;;;18.91;45.00;100169.47;5114926;28;20027;-67
2022/04/06 03:22:30;;;;;;;5.25;2.13;;;;;;;18.92;45.18;100164.78;5114408;28;20108;-68
2022/04/06 03:24:56;;;;;;;4.25;1.90;;;;;;;18.91;44.95;100168.63;5079274;28;20111;-67
2022/04/06 03:27:21;;;;;;;3.80;2.00;;;;;;;18.95;45.13;100166.13;5114229;28;20027;-67
2022/04/06 03:29:47;;;;;;;5.88;1.85;;;;;;;18.95;45.04;100168.88;5096024;28;20038;-67
2022/04/06 03:32:12;;;;;;;4.07;1.70;;;;;;;18.94;44.93;100168.03;5114184;28;20031;-66
2022/04/06 03:34:38;;;;;;;3.83;1.80;;;;;;;18.95;45.16;100163.38;5114402;28;20027;-66
2022/04/06 03:37:03;;;;;;;3.33;1.75;;;;;;;18.91;44.88;100149.38;5114132;28;20038;-66
2022/04/06 03:39:29;;;;;;;4.72;1.73;;;;;;;18.93;45.00;100150.75;5095858;28;20054;-66
2022/04/06 03:41:54;;;;;;;5.18;2.00;;;;;;;18.91;44.75;100141.13;5114041;28;20490;-66
2022/04/06 03:44:20;;;;;;;3.50;1.75;;;;;;;18.93;45.04;100141.69;5095968;28;20038;-66
2022/04/06 03:46:45;;;;;;;4.00;1.90;;;;;;;18.92;44.82;100143.59;5114034;28;20059;-66
2022/04/06 03:49:11;;;;;;;3.67;1.58;;;;;;;18.91;44.75;100133.72;5113705;28;20024;-66
2022/04/06 03:51:36;;;;;;;4.78;1.92;;;;;;;18.90;44.63;100137.59;5113951;28;20028;-66
2022/04/06 03:54:03;;;;;;;3.40;1.50;;;;;;;18.92;44.69;100145.53;5113653;28;20035;-67
2022/04/06 03:56:29;;;;;;;5.35;1.80;;;;;;;18.92;44.91;100137.28;5113918;28;20036;-66
2022/04/06 03:58:55;;;;;;;5.97;1.90;;;;;;;18.91;44.60;100141.13;5114102;28;20055;-66
2022/04/06 04:01:21;;;;;;;4.45;1.90;;;;;;;18.88;44.67;100128.81;5113514;28;20531;-66
2022/04/06 04:03:46;;;;;;;4.07;1.88;;;;;;;18.91;44.80;100141.97;5113850;28;20031;-67
2022/04/06 04:06:11;;;;;;;5.20;1.88;;;;;;;18.90;44.64;100142.28;5078785;28;20031;-66
2022/04/06 04:08:37;;;;;;;5.82;1.73;;;;;;;18.91;44.75;100136.47;5113782;28;20028;-66
2022/04/06 04:11:02;;;;;;;3.22;1.73;;;;;;;18.88;44.46;100123.31;5114338;28;20035;-66
2022/04/06 04:13:27;;;;;;;3.80;1.40;;;;;;;18.90;44.70;100134.84;5097641;28;20118;-66
2022/04/06 04:15:53;;;;;;;3.45;1.85;;;;;;;18.90;44.49;100136.78;5117592;28;20473;-66
2022/04/06 04:18:18;;;;;;;4.10;1.73;;;;;;;18.89;44.41;100138.69;5117552;28;20024;-66
2022/04/06 04:20:45;;;;;;;5.00;2.10;;;;;;;18.89;44.48;100124.13;5117168;28;20439;-66
2022/04/06 04:23:13;;;;;;;3.67;1.80;;;;;;;18.87;44.29;100132.66;5117292;28;20027;-66
2022/04/06 04:25:39;;;;;;;5.35;1.83;;;;;;;18.88;44.27;100133.47;5117863;28;20346;-66
2022/04/06 04:28:05;;;;;;;4.32;1.98;;;;;;;18.85;44.38;100129.38;5099497;28;20058;-66
2022/04/06 04:30:31;;;;;;;4.50;1.60;;;;;;;18.86;44.45;100131.00;5117340;28;20118;-66
2022/04/06 04:32:57;;;;;;;5.05;2.00;;;;;;;18.86;44.51;100128.25;5117842;28;20552;-67
2022/04/06 04:35:23;;;;;;;3.17;1.70;;;;;;;18.84;44.36;100124.13;5117215;28;20118;-66
2022/04/06 04:37:48;;;;;;;3.22;1.50;;;;;;;18.86;44.24;100127.47;5117085;28;20088;-66
2022/04/06 04:40:16;;;;;;;2.58;1.58;;;;;;;18.86;44.53;100116.47;5117610;28;20034;-67
2022/04/06 04:42:42;;;;;;;4.18;1.70;;;;;;;18.85;44.45;100123.03;5099058;28;20036;-66
2022/04/06 04:45:09;;;;;;;2.88;1.58;;;;;;;18.85;44.38;100134.88;5117019;28;20051;-67
2022/04/06 04:47:35;;;;;;;6.97;2.03;;;;;;;18.83;44.45;100117.81;5116923;28;20031;-67
2022/04/06 04:50:00;;;;;;;4.30;1.70;;;;;;;18.84;44.33;100115.88;5098715;28;20023;-67
2022/04/06 04:52:26;;;;;;;6.78;1.85;;;;;;;18.81;44.38;100106.31;5116527;28;20076;-67
2022/04/06 04:54:51;;;;;;;4.50;1.80;;;;;;;18.83;44.45;100112.31;5116831;28;20044;-66
2022/04/06 04:57:17;;;;;;;5.95;2.20;;;;;;;18.83;44.44;100104.09;5116787;28;20115;-66
2022/04/06 04:59:42;;;;;;;4.30;1.85;;;;;;;18.84;44.45;100107.63;5117147;28;20108;-67
2022/04/06 05:02:08;;;;;;;5.18;2.20;;;;;;;18.84;44.37;100099.41;5098351;28;20039;-67
2022/04/06 05:04:33;;;;;;;4.40;2.00;;;;;;;18.83;44.47;100098.59;5116663;28;20031;-67
2022/04/06 05:06:58;;;;;;;3.95;1.70;;;;;;;18.83;44.07;100090.34;5116642;28;20520;-67
2022/04/06 05:09:24;;;;;;;3.58;1.75;;;;;;;18.81;44.51;100095.31;5116618;28;20032;-66
2022/04/06 05:11:49;;;;;;;3.58;1.75;;;;;;;18.80;44.31;100096.41;5116768;28;20028;-70
2022/04/06 05:14:15;;;;;;;4.65;2.05;;;;;;;18.64;44.13;100095.72;5098594;28;20039;-74
2022/04/06 05:16:40;;;;;;;6.45;2.40;;;;;;;18.40;43.85;100103.91;5116757;28;20031;-76
2022/04/06 05:19:06;;;;;;;5.45;2.20;;;;;;;18.14;43.96;100106.78;5081030;28;20044;-75
2022/04/06 05:21:31;;;;;;;6.65;2.33;;;;;;;17.90;44.15;100095.69;5098091;28;20352;-75
2022/04/06 05:23:57;;;;;;;8.30;2.80;;;;;;;17.71;44.57;100096.28;5098588;28;20028;-74
2022/04/06 05:26:23;;;;;;;6.45;2.28;;;;;;;17.49;44.64;100102.19;5115349;28;20027;-71
2022/04/06 05:28:49;;;;;;;6.03;2.33;;;;;;;17.35;44.89;100099.19;5116158;28;20031;-71
2022/04/06 05:31:14;;;;;;;8.55;2.63;;;;;;;17.24;44.99;100096.75;5116156;28;20028;-71
2022/04/06 05:33:40;;;;;;;6.95;2.50;;;;;;;17.12;45.27;100095.13;5116084;28;20042;-71
2022/04/06 05:36:05;;;;;;;6.72;2.72;;;;;;;17.07;45.55;100108.03;5116831;28;20024;-71
2022/04/06 05:38:34;;;;;;;8.10;2.70;;;;;;;16.99;45.54;100099.28;5116273;28;20463;-72
2022/04/06 05:41:01;;;;;;;8.75;2.75;;;;;;;17.00;45.91;100092.69;5097586;28;20035;-69
2022/04/06 05:43:27;;;;;;;7.13;2.17;;;;;;;17.11;45.89;100103.63;5115931;28;20036;-73
2022/04/06 05:45:52;;;;;;;7.82;2.78;;;;;;;17.24;45.70;100089.34;5115584;28;20552;-68
2022/04/06 05:48:18;;;;;;;8.05;2.65;;;;;;;17.38;45.43;100081.38;5115521;28;20032;-67
2022/04/06 05:50:43;;;;;;;8.52;2.63;;;;;;;17.54;45.16;100087.63;5116055;28;20511;-68
2022/04/06 05:53:09;;;;;;;6.00;2.38;;;;;;;17.63;45.13;100082.38;5097162;28;20035;-70
2022/04/06 05:55:34;;;;;;;6.93;2.15;;;;;;;17.77;45.01;100088.88;5115660;28;20031;-72
2022/04/06 05:57:59;;;;;;;5.85;2.40;;;;;;;17.83;44.89;100081.44;5115599;28;20123;-71
2022/04/06 06:00:25;;;;;;;6.07;2.35;;;;;;;17.94;45.03;100087.72;5096747;28;20139;-71
2022/04/06 06:02:51;;;;;;;7.57;2.38;;;;;;;18.01;45.33;100080.81;5097111;28;20476;-72
2022/04/06 06:05:17;;;;;;;5.70;2.03;;;;;;;18.09;44.79;100067.59;5115360;28;20569;-72
2022/04/06 06:07:42;;;;;;;7.00;2.17;;;;;;;18.15;44.85;100091.16;5115712;28;20032;-72
2022/04/06 06:10:08;;;;;;;7.28;2.13;;;;;;;18.20;44.96;100083.72;5097911;28;20061;-72
2022/04/06 06:12:33;;;;;;;5.15;2.10;;;;;;;18.23;45.42;100083.16;5097279;28;20042;-78
2022/04/06 06:15:00;;;;;;;8.50;2.50;;;;;;;18.32;45.24;100090.75;5115512;28;20474;-79
2022/04/06 06:17:25;;;;;;;5.10;1.85;;;;;;;18.35;44.86;100091.03;5097796;28;20466;-78
2022/04/06 06:19:51;;;;;;;8.80;1.90;;;;;;;18.39;44.64;100083.03;5115066;28;20032;-79
2022/04/06 06:22:16;;;;;;;6.10;1.85;;;;;;;18.43;44.66;100097.03;5097223;28;20038;-80
2022/04/06 06:24:41;;;;;;;5.45;1.90;;;;;;;18.46;44.49;100096.44;5115817;28;20410;-79
2022/04/06 06:27:07;;;;;;;5.05;1.95;;;;;;;18.47;44.47;100085.16;5096855;28;20081;-78
2022/04/06 06:29:33;;;;;;;4.60;1.73;;;;;;;18.50;44.59;100090.09;5080630;28;20118;-77
2022/04/06 06:31:58;;;;;;;6.32;1.90;;;;;;;18.50;44.11;100081.00;5115184;28;20082;-81
2022/04/06 06:34:24;;;;;;;5.00;1.60;;;;;;;18.54;44.02;100079.34;5080316;28;20043;-79
2022/04/06 06:36:49;;;;;;;4.18;1.70;;;;;;;18.54;44.03;100085.66;5095712;28;20498;-79
2022/04/06 06:39:14;;;;;;;5.05;1.50;;;;;;;18.55;44.07;100083.72;5062942;28;20126;-79
2022/04/06 06:41:41;;;;;;;5.13;1.75;;;;;;;18.58;43.66;100083.97;5096627;28;20030;-79
2022/04/06 06:44:07;;;;;;;6.28;1.50;;;;;;;18.59;43.70;100084.81;5063477;28;20055;-78
2022/04/06 06:46:32;;;;;;;2.90;1.30;;;;;;;18.60;43.59;100072.69;5096610;28;20456;-79
2022/04/06 06:49:04;;;;;;;5.65;1.90;;;;;;;18.62;44.10;100075.97;5079525;28;20532;-78
2022/04/06 06:51:30;;;;;;;3.27;1.63;;;;;;;18.60;43.60;100058.94;5114437;28;20032;-79
2022/04/06 06:53:57;;;;;;;2.58;1.13;;;;;;;18.63;43.64;100063.88;5114545;28;20309;-80
2022/04/06 06:56:23;;;;;;;3.22;1.33;;;;;;;18.65;43.29;100060.84;5097131;28;20031;-80
2022/04/06 06:58:48;;;;;;;3.38;1.55;;;;;;;18.66;43.21;100062.47;5095720;28;20035;-79
2022/04/06 07:01:14;;;;;;;2.92;1.25;;;;;;;18.64;43.14;100062.75;5063281;28;20131;-78
2022/04/06 07:03:40;;;;;;;4.93;1.48;;;;;;;18.68;43.26;100069.31;5114495;28;20467;-78
2022/04/06 07:06:05;;;;;;;4.25;1.60;;;;;;;18.65;43.28;100064.41;5096329;28;20118;-79
2022/04/06 07:08:30;;;;;;;4.28;1.58;;;;;;;18.67;43.15;100064.13;5096361;28;20032;-79
2022/04/06 07:10:59;;;;;;;4.82;1.70;;;;;;;18.70;43.17;100061.59;5079299;28;20059;-78
2022/04/06 07:13:25;;;;;;;4.85;1.50;;;;;;;18.68;42.96;100068.50;5095938;28;20070;-79
2022/04/06 07:15:51;;;;;;;3.78;1.40;;;;;;;18.69;43.07;100067.38;5114031;28;20027;-79
2022/04/06 07:18:18;;;;;;;3.47;1.25;;;;;;;18.72;43.19;100064.91;5114292;28;20535;-80
2022/04/06 07:20:44;;;;;;;2.92;1.40;;;;;;;18.70;43.24;100064.34;5095933;28;20379;-80
2022/04/06 07:23:10;;;;;;;1.67;1.20;;;;;;;18.72;43.27;100069.56;5114158;28;20031;-81
2022/04/06 07:25:35;;;;;;;1.98;0.90;;;;;;;18.73;43.26;100061.06;5096070;28;20036;-72
2022/04/06 07:28:02;;;;;;;3.13;1.60;;;;;;;18.74;43.49;100054.44;5096599;28;20032;-74
2022/04/06 07:30:28;;;;;;;5.50;1.60;;;;;;;18.74;43.31;100054.44;5113978;28;20089;-74
2022/04/06 07:32:54;;;;;;;3.88;1.30;;;;;;;18.74;43.22;100054.44;5078849;28;20471;-73
2022/04/06 07:35:20;;;;;;;3.72;1.52;;;;;;;18.73;43.29;100036.31;5096095;28;20024;-74
2022/04/06 07:37:47;;;;;;;3.13;1.45;;;;;;;18.73;43.25;100051.97;5114398;28;20031;-74
2022/04/06 07:40:15;;;;;;;3.28;1.27;;;;;;;18.73;43.26;100043.72;5095992;28;20027;-74
2022/04/06 07:42:41;;;;;;;3.92;1.58;;;;;;;18.73;43.63;100035.47;5113985;28;20424;-73
2022/04/06 07:45:09;;;;;;;2.03;1.27;;;;;;;18.72;43.57;100034.69;5078890;28;20027;-73
2022/04/06 07:47:37;;;;;;;4.03;1.30;;;;;;;18.74;43.22;100031.63;5114019;28;20035;-73
2022/04/06 07:50:04;;;;;;;3.22;1.30;;;;;;;18.70;43.26;100023.13;5083034;28;20372;-73
2022/04/06 07:52:31;;;;;;;3.83;1.50;;;;;;;18.73;42.95;100022.59;5117751;28;20100;-73
2022/04/06 07:54:59;;;;;;;3.47;1.17;;;;;;;18.79;43.34;100020.56;5099645;28;20059;-74
2022/04/06 07:57:25;;;;;;;4.03;1.50;;;;;;;18.81;43.24;100014.78;5100224;28;20062;-74
2022/04/06 07:59:52;;;;;;;4.90;1.58;;;;;;;18.83;43.33;100007.91;5082464;28;20480;-73
2022/04/06 08:02:17;;;;;;;1.73;1.17;;;;;;;18.86;43.57;100012.84;5082963;28;20032;-70
2022/04/06 08:04:43;;;;;;;2.25;1.30;;;;;;;18.84;43.43;100015.03;5118137;28;20032;-70
2022/04/06 08:07:08;;;;;;;3.45;1.42;;;;;;;18.86;43.55;100012.03;5117972;28;20440;-70
2022/04/06 08:09:34;;;;;;;3.95;1.48;;;;;;;18.87;43.50;100016.44;5099551;28;20463;-70
2022/04/06 08:12:01;;;;;;;3.22;1.50;;;;;;;18.85;43.30;100013.09;5099359;28;20122;-70
2022/04/06 08:14:27;;;;;;;3.22;1.50;;;;;;;18.85;43.35;100010.34;5099630;28;20035;-70
2022/04/06 08:16:52;;;;;;;2.65;1.40;;;;;;;18.80;43.47;100013.16;5099410;28;20475;-70
2022/04/06 08:19:18;;;;;;;4.43;1.45;;;;;;;18.82;43.42;100010.94;5117234;28;20433;-70
2022/04/06 08:21:43;;;;;;;4.25;1.60;;;;;;;18.81;43.38;100014.78;5099215;28;20490;-70
2022/04/06 08:24:08;;;;;;;4.07;1.50;;;;;;;18.80;43.67;100016.72;5117747;28;20036;-70
2022/04/06 08:26:34;;;;;;;2.75;1.20;;;;;;;18.80;43.61;100019.47;5099021;28;20042;-70
2022/04/06 08:28:59;;;;;;;4.40;1.58;;;;;;;18.79;43.59;100020.56;5117393;28;20027;-70
2022/04/06 08:31:25;;;;;;;2.42;1.27;;;;;;;18.79;43.48;100028.81;5117017;28;20480;-69
2022/04/06 08:33:50;;;;;;;3.42;1.38;;;;;;;18.74;43.56;100018.72;5117319;28;20028;-70
2022/04/06 08:36:16;;;;;;;2.22;1.17;;;;;;;18.74;43.44;100021.44;5099039;28;20464;-70
2022/04/06 08:38:42;;;;;;;2.95;1.35;;;;;;;18.75;43.43;100020.34;5098628;28;20479;-70
2022/04/06 08:41:08;;;;;;;3.30;1.48;;;;;;;18.75;43.53;100017.59;5116706;28;20543;-70
2022/04/06 08:43:34;;;;;;;2.40;1.23;;;;;;;18.75;43.43;100020.34;5099620;28;20031;-70
2022/04/06 08:45:59;;;;;;;3.15;1.30;;;;;;;18.75;43.31;100020.34;5117318;28;20046;-70
2022/04/06 08:48:30;;;;;;;2.70;1.20;;;;;;;18.75;43.15;100017.59;5098604;28;20085;-70
2022/04/06 08:51:00;;;;;;;2.50;1.40;;;;;;;18.73;43.31;100019.84;5117262;28;20463;-69
2022/04/06 08:53:25;;;;;;;2.58;1.35;;;;;;;18.76;43.40;100008.25;5098415;28;20035;-70
2022/04/06 08:55:51;;;;;;;3.08;1.40;;;;;;;18.76;43.40;100002.75;5117317;28;20036;-70
2022/04/06 08:58:16;;;;;;;2.83;1.42;;;;;;;18.80;43.35;100007.69;5098233;28;20059;-70
2022/04/06 09:00:42;;;;;;;3.03;1.30;;;;;;;18.77;43.53;99998.88;5080605;28;20048;-70
2022/04/06 09:03:07;;;;;;;2.85;1.30;;;;;;;18.79;43.16;100006.84;5117308;28;20368;-70
2022/04/06 09:05:34;;;;;;;2.53;1.23;;;;;;;18.76;43.43;100005.50;5116693;28;20375;-70
2022/04/06 09:08:01;;;;;;;4.05;1.50;;;;;;;18.74;43.48;100010.47;5098683;28;20039;-70
2022/04/06 09:10:40;;;;;;;2.80;1.25;;;;;;;18.80;43.54;100018.66;5081366;28;20043;-69
2022/04/06 09:13:15;;;;;;;2.47;1.45;;;;;;;18.80;43.75;100008.47;5116613;28;20038;-69
2022/04/06 09:15:41;;;;;;;3.22;1.38;;;;;;;18.81;43.56;100012.03;5116466;28;20027;-70
2022/04/06 09:18:07;;;;;;;2.25;1.20;;;;;;;18.81;43.67;100004.63;5116540;28;20118;-70
2022/04/06 09:20:32;;;;;;;3.63;1.55;;;;;;;18.82;43.64;100003.50;5116309;28;20135;-69
2022/04/06 09:23:05;;;;;;;4.97;1.58;;;;;;;18.82;43.47;100011.75;5116779;28;20032;-70
2022/04/06 09:25:38;;;;;;;3.92;1.58;;;;;;;18.81;43.62;100018.38;5098795;28;20024;-69
2022/04/06 09:28:06;;;;;;;2.35;1.20;;;;;;;18.81;43.71;100009.28;5116496;28;20030;-70
2022/04/06 09:30:35;;;;;;;4.03;1.40;;;;;;;18.81;43.61;100009.28;5116167;28;20028;-69
2022/04/06 09:33:03;;;;;;;3.42;1.40;;;;;;;18.79;43.68;100006.03;5116357;28;20467;-69
2022/04/06 09:35:31;;;;;;;4.10;1.30;;;;;;;18.76;43.51;100001.94;5097808;28;20034;-69
2022/04/06 09:38:25;;;;;;;2.85;1.02;;;;;;;18.83;43.65;100004.34;5097407;28;20023;-69
2022/04/06 09:41:01;;;;;;;2.88;1.08;;;;;;;18.80;43.47;100002.19;5113281;28;20101;-69
2022/04/06 09:43:34;;;;;;;1.92;1.17;;;;;;;18.80;43.78;100010.44;5097939;28;20024;-69
2022/04/06 09:49:10;;;;;;;2.38;1.20;;;;;;;18.78;43.96;100010.72;5115851;28;20093;-69
2022/04/06 09:51:40;;;;;;;3.75;1.27;;;;;;;18.79;43.88;99998.59;5097470;28;20042;-69
2022/04/06 09:54:08;;;;;;;4.53;1.10;;;;;;;18.80;44.11;100003.00;5115616;28;20024;-69
2022/04/06 09:56:36;;;;;;;3.83;1.20;;;;;;;18.81;44.20;99993.66;5115348;28;20034;-69
2022/04/06 09:59:03;;;;;;;2.42;1.10;;;;;;;18.81;44.26;99987.31;5115293;28;20024;-69
2022/04/06 10:01:34;;;;;;;2.88;1.38;;;;;;;18.82;43.97;99995.25;5064498;28;20036;-69
2022/04/06 10:04:05;;;;;;;3.53;1.20;;;;;;;18.81;44.06;99992.81;5115863;28;20483;-69
2022/04/06 10:06:35;;;;;;;4.40;1.40;;;;;;;18.83;43.94;99993.34;5115989;28;20024;-69
2022/04/06 10:09:03;;;;;;;2.78;1.20;;;;;;;18.82;43.97;99986.22;5097959;28;20030;-69
2022/04/06 10:11:30;;;;;;;2.25;1.15;;;;;;;18.82;44.11;99988.97;5115260;28;20024;-69
2022/04/06 10:13:56;;;;;;;2.15;1.20;;;;;;;18.83;43.99;99979.63;5115261;28;20032;-69
2022/04/06 10:16:23;;;;;;;3.65;1.30;;;;;;;18.81;44.33;99976.31;5115204;28;20077;-69
2022/04/06 10:18:51;;;;;;;3.10;1.20;;;;;;;18.82;44.39;99981.53;5115789;28;20034;-69
2022/04/06 10:21:34;;;;;;;2.65;1.15;;;;;;;18.83;44.38;99977.66;5096824;28;20070;-69
2022/04/06 10:24:26;;;;;;;1.85;1.13;;;;;;;18.83;44.26;99968.63;5115678;28;20031;-69
2022/04/06 10:26:55;;;;;;;3.53;1.27;;;;;;;18.83;44.48;99979.63;5097405;28;20505;-70
2022/04/06 10:29:20;;;;;;;2.00;1.20;;;;;;;18.81;44.61;99988.16;5115061;28;20020;-69
2022/04/06 10:31:46;;;;;;;2.22;1.17;;;;;;;18.81;44.46;99982.66;5114996;28;20039;-69
2022/04/06 10:34:22;;;;;;;1.80;1.10;;;;;;;18.82;44.42;99975.22;5080332;28;20364;-69
2022/04/06 10:37:11;;;;;;;3.42;1.30;;;;;;;18.84;44.53;99975.72;5114804;28;20028;-69
2022/04/06 10:39:53;;;;;;;2.10;1.13;;;;;;;18.82;44.39;99980.72;5096913;28;20039;-69
2022/04/06 10:42:30;;;;;;;2.38;1.10;;;;;;;18.81;44.48;99981.81;5096621;28;20132;-70
2022/04/06 10:44:55;;;;;;;2.45;1.30;;;;;;;18.77;44.63;99968.66;5096394;28;20484;-69
2022/04/06 10:47:22;;;;;;;3.28;1.25;;;;;;;18.76;44.52;99969.78;5114428;28;20027;-69
2022/04/06 10:50:10;;;;;;;1.63;1.20;;;;;;;18.80;44.53;99971.94;5096977;28;20047;-69
2022/04/06 10:52:35;;;;;;;3.80;1.02;;;;;;;18.77;44.69;99963.16;5096875;28;20027;-69
2022/04/06 10:55:09;;;;;;;1.98;1.23;;;;;;;18.79;44.52;99964.81;5096326;28;20424;-69
2022/04/06 10:58:00;;;;;;;2.22;1.10;;;;;;;18.81;44.52;99957.09;5097086;28;20452;-69
2022/04/06 11:00:26;;;;;;;2.72;1.10;;;;;;;18.79;44.68;99956.56;5096050;28;20161;-69
2022/04/06 11:02:53;;;;;;;3.28;1.27;;;;;;;18.76;44.65;99963.47;5079433;28;20077;-69
2022/04/06 11:05:41;;;;;;;3.53;1.50;;;;;;;18.81;44.64;99955.16;5115024;28;20074;-69
2022/04/06 11:11:31;;;;;;;2.47;1.35;;;;;;;18.83;44.67;99960.38;5099293;28;20093;-69
2022/04/06 11:13:57;;;;;;;3.88;1.52;;;;;;;18.78;44.81;99953.00;5114462;28;20019;-70
2022/04/06 11:16:45;;;;;;;2.92;1.08;;;;;;;18.80;44.72;99945.28;5114303;28;20486;-69
2022/04/06 11:19:12;;;;;;;2.80;1.25;;;;;;;18.79;45.03;99940.06;5114655;28;20054;-66
2022/04/06 11:21:52;;;;;;;2.45;1.38;;;;;;;18.83;44.83;99933.69;5114146;28;20059;-66
2022/04/06 11:24:23;;;;;;;2.00;1.05;;;;;;;18.87;45.02;99936.72;5113604;28;20061;-66
2022/04/06 11:26:49;;;;;;;1.85;1.02;;;;;;;18.91;45.11;99935.84;5114288;28;20027;-66
2022/04/06 11:29:15;;;;;;;2.38;1.00;;;;;;;18.94;45.04;99928.91;5114489;28;20043;-66
2022/04/06 11:32:03;;;;;;;3.25;1.30;;;;;;;18.98;44.91;99915.44;5095928;28;20023;-66
2022/04/06 11:34:33;;;;;;;1.63;0.98;;;;;;;19.01;44.93;99928.56;5114112;28;20032;-66